Time;durP1;ratioP1;P1;durP2;ratioP2;P2;SDS_P1;SDS_P2;PMS_P1;PMS_P2;Temp;Humidity;BMP_temperature;BMP_pressure;BME280_temperature;BME280_humidity;BME280_pressure;Samples;Min_cycle;Max_cycle;Signal;HPM_P1;HPM_P2
2023/04/01 00:01:14;;;;;;;6.47;3.83;;;9.20;42.90;;;;;;5008776;28;20465;-51
2023/04/01 00:03:41;;;;;;;5.10;4.17;;;9.20;42.70;;;;;;5011842;28;20469;-51
2023/04/01 00:06:07;;;;;;;4.67;4.27;;;9.20;42.60;;;;;;5011138;28;20489;-51
2023/04/01 00:08:34;;;;;;;7.40;6.17;;;9.20;42.10;;;;;;5012759;28;20852;-51
2023/04/01 00:11:00;;;;;;;25.87;19.30;;;9.20;41.80;;;;;;5013023;28;20461;-51
2023/04/01 00:13:27;;;;;;;21.00;16.60;;;9.20;41.90;;;;;;5012519;28;20496;-51
2023/04/01 00:15:54;;;;;;;24.30;18.20;;;9.20;42.00;;;;;;5012139;28;20496;-52
2023/04/01 00:18:23;;;;;;;15.43;13.00;;;9.20;41.90;;;;;;5012661;28;20853;-51
2023/04/01 00:20:51;;;;;;;10.30;8.00;;;9.20;40.90;;;;;;5012808;28;20486;-51
2023/04/01 00:23:19;;;;;;;9.30;7.30;;;9.20;41.70;;;;;;5011845;28;20496;-51
2023/04/01 00:25:47;;;;;;;8.77;7.20;;;9.20;41.90;;;;;;5010967;28;20497;-51
2023/04/01 00:28:14;;;;;;;8.17;6.43;;;9.20;41.80;;;;;;5012638;28;20473;-51
2023/04/01 00:30:41;;;;;;;6.80;6.10;;;9.20;40.90;;;;;;5012221;28;20932;-51
2023/04/01 00:33:08;;;;;;;6.30;5.70;;;9.20;40.60;;;;;;5012746;28;20449;-51
2023/04/01 00:35:36;;;;;;;8.40;6.90;;;9.20;40.60;;;;;;5003868;28;20948;-51
2023/04/01 00:38:03;;;;;;;9.00;5.37;;;9.10;40.20;;;;;;5012154;28;20710;-51
2023/04/01 00:40:33;;;;;;;13.20;5.40;;;9.20;40.40;;;;;;5010107;28;20521;-51
2023/04/01 00:43:00;;;;;;;6.70;6.00;;;9.10;40.40;;;;;;5011839;28;20497;-52
2023/04/01 00:45:33;;;;;;;6.47;5.30;;;9.10;40.70;;;;;;5004288;28;20540;-51
2023/04/01 00:48:02;;;;;;;5.53;5.00;;;9.10;40.50;;;;;;5007795;28;20557;-53
2023/04/01 00:50:31;;;;;;;9.20;5.77;;;9.10;41.00;;;;;;5011086;28;20503;-51
2023/04/01 00:53:00;;;;;;;8.60;5.50;;;9.10;41.80;;;;;;5006039;28;20491;-51
2023/04/01 00:55:29;;;;;;;8.00;4.93;;;9.10;41.90;;;;;;5008123;28;20980;-51
2023/04/01 00:57:58;;;;;;;4.97;4.50;;;9.20;41.90;;;;;;5011863;28;20970;-52
2023/04/01 01:00:26;;;;;;;8.20;4.70;;;9.20;41.80;;;;;;5010905;28;20536;-50
2023/04/01 01:02:53;;;;;;;5.40;4.90;;;9.20;41.90;;;;;;5006394;28;20453;-51
2023/04/01 01:05:27;;;;;;;5.80;4.10;;;9.10;41.80;;;;;;5010943;28;20499;-51
2023/04/01 01:08:04;;;;;;;8.50;4.87;;;9.20;41.90;;;;;;5006079;22;20576;-53
2023/04/01 01:10:33;;;;;;;5.23;3.93;;;9.20;41.90;;;;;;4983656;28;20544;-53
2023/04/01 01:13:09;;;;;;;5.60;4.87;;;9.10;41.70;;;;;;5007668;28;21027;-53
2023/04/01 01:15:42;;;;;;;5.23;4.30;;;9.20;41.50;;;;;;5008282;28;20461;-52
2023/04/01 01:18:17;;;;;;;6.43;5.93;;;9.20;41.00;;;;;;4991737;28;20627;-53
2023/04/01 01:21:11;;;;;;;5.43;5.03;;;9.20;41.90;;;;;;4995530;28;21069;-52
2023/04/01 01:24:12;;;;;;;6.00;4.77;;;9.20;41.60;;;;;;4997125;28;20872;-53
2023/04/01 01:26:56;;;;;;;5.53;4.57;;;9.20;41.90;;;;;;4995551;28;20532;-53
2023/04/01 01:29:49;;;;;;;7.17;5.17;;;9.20;40.50;;;;;;4996893;28;20564;-53
2023/04/01 01:32:31;;;;;;;4.70;4.20;;;9.10;40.60;;;;;;5009576;28;20934;-53
2023/04/01 01:35:12;;;;;;;5.73;5.20;;;9.10;41.80;;;;;;4972314;28;20534;-53
2023/04/01 01:37:41;;;;;;;8.10;5.63;;;9.10;40.60;;;;;;4972639;28;20501;-53
2023/04/01 01:40:11;;;;;;;8.20;5.00;;;9.10;41.10;;;;;;4989020;28;20585;-52
2023/04/01 01:42:40;;;;;;;5.83;4.83;;;9.10;41.00;;;;;;4990181;28;20458;-53
2023/04/01 01:45:10;;;;;;;5.10;4.70;;;9.10;40.40;;;;;;5007940;28;20484;-53
2023/04/01 01:47:37;;;;;;;5.40;4.90;;;9.10;39.20;;;;;;5011697;28;20560;-53
2023/04/01 01:50:07;;;;;;;8.03;4.77;;;9.10;38.60;;;;;;4994018;28;20546;-53
2023/04/01 01:52:33;;;;;;;4.93;4.57;;;9.10;38.10;;;;;;4996512;28;20634;-52
2023/04/01 01:55:00;;;;;;;5.40;4.90;;;9.10;37.40;;;;;;4992095;28;20463;-52
2023/04/01 01:57:29;;;;;;;6.57;5.00;;;9.10;36.90;;;;;;5001832;28;20542;-53
2023/04/01 02:00:02;;;;;;;5.00;4.50;;;9.10;37.10;;;;;;4996264;28;21082;-53
2023/04/01 02:02:31;;;;;;;5.03;4.53;;;9.10;37.60;;;;;;5001635;28;20988;-53
2023/04/01 02:04:58;;;;;;;6.10;4.87;;;9.10;37.10;;;;;;4999411;28;20474;-52
2023/04/01 02:07:32;;;;;;;5.47;4.97;;;9.10;36.40;;;;;;5008001;28;20997;-52
2023/04/01 02:09:58;;;;;;;5.03;4.60;;;9.10;36.10;;;;;;4995123;28;20492;-53
2023/04/01 02:12:26;;;;;;;5.80;5.27;;;9.10;36.70;;;;;;5006885;28;20922;-53
2023/04/01 02:14:56;;;;;;;9.00;5.30;;;9.10;36.80;;;;;;5008156;28;20460;-53
2023/04/01 02:17:26;;;;;;;5.50;4.77;;;9.10;36.40;;;;;;5009654;28;20495;-52
2023/04/01 02:19:55;;;;;;;5.70;5.17;;;9.10;34.70;;;;;;4990985;28;21347;-52
2023/04/01 02:22:24;;;;;;;6.03;5.47;;;9.10;34.70;;;;;;5014946;28;20445;-54
2023/04/01 02:24:58;;;;;;;7.03;5.50;;;9.10;35.00;;;;;;5006244;28;20551;-53
2023/04/01 02:27:25;;;;;;;6.17;4.73;;;9.10;33.80;;;;;;5014007;28;20527;-53
2023/04/01 02:29:52;;;;;;;7.50;5.30;;;9.10;34.60;;;;;;5006899;28;20563;-53
2023/04/01 02:32:21;;;;;;;8.90;5.40;;;9.10;34.00;;;;;;5011435;28;20545;-52
2023/04/01 02:34:48;;;;;;;5.13;4.73;;;9.10;33.50;;;;;;5007540;28;20543;-53
2023/04/01 02:37:15;;;;;;;6.47;4.97;;;9.10;33.10;;;;;;4999911;28;21203;-53
2023/04/01 02:39:43;;;;;;;6.17;4.90;;;9.10;32.20;;;;;;5008235;28;20589;-53
2023/04/01 02:42:11;;;;;;;5.80;5.20;;;9.10;31.50;;;;;;5006896;28;20968;-53
2023/04/01 02:44:37;;;;;;;10.60;4.50;;;9.10;31.50;;;;;;5012144;28;20543;-52
2023/04/01 02:47:04;;;;;;;4.80;4.30;;;9.10;31.20;;;;;;5011607;28;20508;-52
2023/04/01 02:49:31;;;;;;;5.30;4.90;;;9.00;30.10;;;;;;4998962;28;20541;-53
2023/04/01 02:51:57;;;;;;;5.10;4.70;;;9.10;30.10;;;;;;4996520;28;20579;-52
2023/04/01 02:54:24;;;;;;;7.63;4.83;;;9.10;29.90;;;;;;5005714;28;20551;-53
2023/04/01 02:56:51;;;;;;;5.00;4.50;;;9.10;29.70;;;;;;5006147;28;20461;-53
2023/04/01 02:59:18;;;;;;;5.30;4.07;;;9.10;29.20;;;;;;4995552;28;20586;-53
2023/04/01 03:01:45;;;;;;;4.80;4.30;;;9.10;29.00;;;;;;4998583;28;20540;-54
2023/04/01 03:04:11;;;;;;;5.20;4.20;;;9.10;27.70;;;;;;4993864;28;20539;-52
2023/04/01 03:06:38;;;;;;;4.53;4.03;;;9.10;27.30;;;;;;4994474;28;20533;-52
2023/04/01 03:09:04;;;;;;;7.73;4.67;;;9.00;28.40;;;;;;4994229;28;20569;-52
2023/04/01 03:11:31;;;;;;;5.77;5.20;;;9.00;27.40;;;;;;4992872;28;20460;-53
2023/04/01 03:13:58;;;;;;;4.93;4.53;;;9.00;26.70;;;;;;4992540;28;20548;-52
2023/04/01 03:16:25;;;;;;;9.43;4.57;;;9.00;28.10;;;;;;4992538;28;20564;-53
2023/04/01 03:18:53;;;;;;;6.00;4.50;;;9.10;27.90;;;;;;4993563;28;21237;-53
2023/04/01 03:21:21;;;;;;;5.67;4.63;;;9.10;28.60;;;;;;4991008;28;20990;-52
2023/04/01 03:23:48;;;;;;;5.00;4.40;;;9.00;28.20;;;;;;4981119;28;20886;-53
2023/04/01 03:26:15;;;;;;;7.83;5.10;;;9.00;28.70;;;;;;4994089;28;20533;-53
2023/04/01 03:28:42;;;;;;;4.87;4.37;;;9.00;26.60;;;;;;4994360;28;20553;-53
2023/04/01 03:31:08;;;;;;;6.07;4.83;;;9.00;26.10;;;;;;4991215;28;20907;-52
2023/04/01 03:33:36;;;;;;;7.37;4.40;;;9.00;24.90;;;;;;5002300;28;20547;-53
2023/04/01 03:36:06;;;;;;;5.70;4.60;;;9.00;26.00;;;;;;5013450;28;20940;-53
2023/04/01 03:38:32;;;;;;;6.13;4.17;;;9.00;26.90;;;;;;5000125;28;20473;-52
2023/04/01 03:40:59;;;;;;;8.40;5.10;;;9.00;25.90;;;;;;4985038;28;20575;-53
2023/04/01 03:43:26;;;;;;;5.90;4.60;;;9.00;26.00;;;;;;4992034;28;20553;-53
2023/04/01 03:45:54;;;;;;;5.03;4.53;;;9.00;25.80;;;;;;4992558;28;20473;-53
2023/04/01 03:48:20;;;;;;;5.47;4.90;;;9.00;25.00;;;;;;4992727;28;20490;-53
2023/04/01 03:50:48;;;;;;;6.47;4.60;;;9.00;24.20;;;;;;4990259;28;20592;-53
2023/04/01 03:53:15;;;;;;;6.10;4.87;;;9.00;22.10;;;;;;4989288;28;21206;-53
2023/04/01 03:55:42;;;;;;;4.43;4.00;;;9.00;22.00;;;;;;4992080;28;20476;-53
2023/04/01 03:58:09;;;;;;;6.40;4.60;;;9.00;22.90;;;;;;4992059;28;20481;-52
2023/04/01 04:00:36;;;;;;;4.70;4.30;;;9.00;22.40;;;;;;4991194;28;20489;-53
2023/04/01 04:03:03;;;;;;;10.23;5.30;;;9.00;20.70;;;;;;4991580;28;20562;-53
2023/04/01 04:05:29;;;;;;;5.30;4.27;;;9.00;72.70;;;;;;4992040;28;21021;-53
2023/04/01 04:07:57;;;;;;;8.50;4.60;;;9.00;84.00;;;;;;4996090;28;20528;-53
2023/04/01 04:10:24;;;;;;;4.70;3.83;;;9.00;84.80;;;;;;5001791;28;20462;-53
2023/04/01 04:12:52;;;;;;;4.43;4.00;;;9.00;81.50;;;;;;5002438;28;20988;-53
2023/04/01 04:15:18;;;;;;;4.80;4.40;;;9.00;90.40;;;;;;5004319;28;20557;-52
2023/04/01 04:17:45;;;;;;;8.93;4.80;;;9.00;99.90;;;;;;5006957;28;20581;-53
2023/04/01 04:20:12;;;;;;;4.47;3.80;;;9.00;99.90;;;;;;4995592;28;21063;-52
2023/04/01 04:22:38;;;;;;;6.53;4.60;;;9.00;99.90;;;;;;4996158;28;20566;-53
2023/04/01 04:25:07;;;;;;;6.80;4.03;;;9.00;99.90;;;;;;4995820;28;20554;-52
2023/04/01 04:27:34;;;;;;;3.80;3.47;;;9.00;99.90;;;;;;4999294;28;20880;-53
2023/04/01 04:30:01;;;;;;;5.03;3.80;;;9.00;99.90;;;;;;4990294;28;20454;-52
2023/04/01 04:32:28;;;;;;;5.93;4.10;;;9.00;99.90;;;;;;5004006;28;20461;-53
2023/04/01 04:34:54;;;;;;;7.90;3.80;;;9.00;99.90;;;;;;5002992;28;20547;-53
2023/04/01 04:37:21;;;;;;;4.70;4.23;;;9.00;99.90;;;;;;4992786;28;20488;-53
2023/04/01 04:39:47;;;;;;;7.20;4.67;;;9.00;99.90;;;;;;4996149;28;20479;-53
2023/04/01 04:42:15;;;;;;;6.43;3.80;;;9.00;99.90;;;;;;4991539;28;20473;-52
2023/04/01 04:44:41;;;;;;;7.03;4.50;;;9.00;99.90;;;;;;5003387;28;20484;-53
2023/04/01 04:47:08;;;;;;;5.77;4.93;;;9.00;99.90;;;;;;4994933;28;20542;-52
2023/04/01 04:49:35;;;;;;;5.40;5.00;;;9.00;99.90;;;;;;4992592;28;20569;-52
2023/04/01 04:52:01;;;;;;;4.80;4.43;;;9.00;99.90;;;;;;4992259;28;20445;-52
2023/04/01 04:54:28;;;;;;;5.67;5.00;;;9.00;99.90;;;;;;4973191;28;20522;-52
2023/04/01 04:56:55;;;;;;;9.97;4.60;;;9.00;99.90;;;;;;4978619;28;20478;-52
2023/04/01 04:59:22;;;;;;;6.70;4.93;;;9.00;99.90;;;;;;4991458;28;20574;-52
2023/04/01 05:01:49;;;;;;;9.30;5.63;;;9.00;99.90;;;;;;4991648;28;20646;-53
2023/04/01 05:04:16;;;;;;;5.57;4.97;;;9.10;99.90;;;;;;4991633;28;20548;-52
2023/04/01 05:06:44;;;;;;;9.53;5.03;;;9.00;99.90;;;;;;4981984;28;20550;-53
2023/04/01 05:09:11;;;;;;;4.97;4.57;;;9.00;99.90;;;;;;4991802;28;20584;-52
2023/04/01 05:11:37;;;;;;;6.60;5.50;;;9.10;99.90;;;;;;4993143;28;20501;-53
2023/04/01 05:14:04;;;;;;;8.73;5.87;;;9.00;99.90;;;;;;4982185;28;20493;-52
2023/04/01 05:16:32;;;;;;;6.23;5.67;;;9.00;99.90;;;;;;5011796;28;20521;-52
2023/04/01 05:18:59;;;;;;;6.87;5.20;;;9.10;99.90;;;;;;5011892;28;20468;-53
2023/04/01 05:21:26;;;;;;;6.13;5.27;;;9.10;99.90;;;;;;4991849;28;20485;-53
2023/04/01 05:23:52;;;;;;;5.97;4.97;;;9.10;99.90;;;;;;4987490;28;20498;-53
2023/04/01 05:26:19;;;;;;;6.53;5.50;;;9.10;99.90;;;;;;4992474;28;21031;-53
2023/04/01 05:28:45;;;;;;;6.57;5.60;;;9.10;99.90;;;;;;4991182;28;21046;-53
2023/04/01 05:31:12;;;;;;;5.13;4.63;;;9.10;99.90;;;;;;4998064;28;20544;-53
2023/04/01 05:33:39;;;;;;;5.70;5.20;;;9.20;99.90;;;;;;4999564;28;20902;-53
2023/04/01 05:36:08;;;;;;;5.57;5.17;;;9.20;99.90;;;;;;5015888;28;20921;-53
2023/04/01 05:38:34;;;;;;;8.13;5.90;;;9.20;99.90;;;;;;5006502;28;20571;-54
2023/04/01 05:41:01;;;;;;;10.37;7.20;;;9.20;99.90;;;;;;4998585;28;20933;-54
2023/04/01 05:43:27;;;;;;;6.67;6.03;;;9.20;99.90;;;;;;5007667;28;20493;-53
2023/04/01 05:45:54;;;;;;;6.73;6.13;;;9.20;99.90;;;;;;5001176;28;20537;-53
2023/04/01 05:48:21;;;;;;;6.63;6.00;;;9.20;99.90;;;;;;5001377;28;20477;-53
2023/04/01 05:50:49;;;;;;;6.07;5.50;;;9.20;99.90;;;;;;5008953;28;20549;-53
2023/04/01 05:53:15;;;;;;;6.47;5.87;;;9.20;99.90;;;;;;4995520;28;20470;-53
2023/04/01 05:55:42;;;;;;;5.20;4.80;;;9.20;99.90;;;;;;4995352;28;20539;-53
2023/04/01 05:58:08;;;;;;;5.30;4.80;;;9.20;99.90;;;;;;4995789;28;20564;-53
2023/04/01 06:00:35;;;;;;;9.93;5.10;;;9.30;99.90;;;;;;4994417;28;20574;-52
2023/04/01 06:03:01;;;;;;;5.30;4.20;;;9.20;99.90;;;;;;5011357;28;20476;-53
2023/04/01 06:05:30;;;;;;;5.07;4.60;;;9.30;99.90;;;;;;5004656;28;20493;-52
2023/04/01 06:08:01;;;;;;;4.37;4.07;;;9.30;99.90;;;;;;4996699;28;20565;-53
2023/04/01 06:10:44;;;;;;;4.10;3.73;;;9.30;99.90;;;;;;4994144;28;20550;-53
2023/04/01 06:13:19;;;;;;;5.73;4.03;;;9.30;99.90;;;;;;4994450;28;21321;-53
2023/04/01 06:15:54;;;;;;;4.07;3.77;;;9.30;99.90;;;;;;4995103;28;20541;-53
2023/04/01 06:18:50;;;;;;;4.33;4.00;;;9.30;99.90;;;;;;4986642;28;20491;-53
2023/04/01 06:21:34;;;;;;;4.10;3.70;;;9.40;99.90;;;;;;4990328;28;20566;-52
2023/04/01 06:24:17;;;;;;;4.60;4.20;;;9.40;99.90;;;;;;4990847;28;20447;-52
2023/04/01 06:26:55;;;;;;;3.73;3.40;;;9.40;99.90;;;;;;4992615;28;20493;-53
2023/04/01 06:29:42;;;;;;;4.20;3.80;;;9.40;99.90;;;;;;4993110;28;20572;-53
2023/04/01 06:32:23;;;;;;;3.93;3.63;;;9.40;99.90;;;;;;4991962;28;20537;-53
2023/04/01 06:35:04;;;;;;;3.30;3.10;;;9.40;99.90;;;;;;4999476;28;20551;-52
2023/04/01 06:37:56;;;;;;;4.23;3.83;;;9.40;99.90;;;;;;5000350;28;20549;-53
2023/04/01 06:40:45;;;;;;;13.97;11.00;;;9.40;99.90;;;;;;4999876;28;20553;-54
2023/04/01 06:43:20;;;;;;;5.43;5.03;;;9.40;99.90;;;;;;4995720;28;20550;-52
2023/04/01 06:45:55;;;;;;;11.97;9.00;;;9.40;99.90;;;;;;4998422;28;20505;-52
2023/04/01 06:48:46;;;;;;;8.53;7.73;;;9.50;99.90;;;;;;5004717;28;20934;-53
2023/04/01 06:51:22;;;;;;;14.93;13.70;;;9.50;99.90;;;;;;5002385;28;20496;-53
2023/04/01 06:53:57;;;;;;;4.90;4.50;;;9.50;99.90;;;;;;4988015;28;20561;-53
2023/04/01 06:56:27;;;;;;;4.20;3.90;;;9.40;99.90;;;;;;4995280;28;20449;-53
2023/04/01 06:58:57;;;;;;;4.60;4.30;;;9.30;99.90;;;;;;4994673;28;20537;-53
2023/04/01 07:01:29;;;;;;;6.30;5.80;;;9.20;99.90;;;;;;4983992;28;20892;-52
2023/04/01 07:04:00;;;;;;;8.40;7.60;;;9.20;99.90;;;;;;4989135;28;20502;-53
2023/04/01 07:06:30;;;;;;;5.93;5.43;;;9.20;99.90;;;;;;4991788;28;20979;-53
2023/04/01 07:09:02;;;;;;;6.63;6.03;;;9.10;99.90;;;;;;5007209;23;20586;-51
2023/04/01 07:11:33;;;;;;;8.90;5.60;;;9.00;99.90;;;;;;4994640;28;20457;-51
2023/04/01 07:14:03;;;;;;;6.37;5.87;;;8.90;99.90;;;;;;4996990;28;20550;-50
2023/04/01 07:16:33;;;;;;;7.27;6.67;;;8.90;99.90;;;;;;4992222;28;20492;-51
2023/04/01 07:19:05;;;;;;;6.53;6.03;;;8.70;99.90;;;;;;4993458;28;20896;-50
2023/04/01 07:21:37;;;;;;;5.77;5.27;;;8.70;99.90;;;;;;4998338;28;20584;-51
2023/04/01 07:24:09;;;;;;;5.93;5.43;;;8.70;99.90;;;;;;4995032;28;20482;-51
2023/04/01 07:26:37;;;;;;;4.93;4.63;;;8.60;99.90;;;;;;4993096;28;20987;-51
2023/04/01 07:29:09;;;;;;;5.37;4.97;;;8.60;99.90;;;;;;4991665;28;20537;-52
2023/04/01 07:31:53;;;;;;;6.03;5.40;;;8.50;99.90;;;;;;4986778;28;20469;-51
2023/04/01 07:34:25;;;;;;;4.80;4.40;;;8.50;99.90;;;;;;4989295;28;20554;-51
2023/04/01 07:36:57;;;;;;;5.53;5.03;;;8.60;99.90;;;;;;4991542;28;20512;-51
2023/04/01 07:39:35;;;;;;;5.00;4.43;;;8.50;99.90;;;;;;4992619;28;20562;-50
2023/04/01 07:42:09;;;;;;;5.10;4.80;;;8.40;99.90;;;;;;4990106;28;21194;-51
2023/04/01 07:44:45;;;;;;;4.77;4.37;;;8.40;99.90;;;;;;4976311;28;20470;-51
2023/04/01 07:47:25;;;;;;;4.97;4.63;;;8.50;99.90;;;;;;4988785;28;20557;-51
2023/04/01 07:50:01;;;;;;;4.87;4.50;;;8.40;99.90;;;;;;4994109;28;21173;-51
2023/04/01 07:52:36;;;;;;;5.40;5.00;;;8.40;99.90;;;;;;4992706;28;20479;-52
2023/04/01 07:55:10;;;;;;;4.70;4.30;;;8.40;99.90;;;;;;4991502;28;20557;-51
2023/04/01 07:57:44;;;;;;;5.30;4.80;;;8.30;99.90;;;;;;4993309;28;21009;-51
2023/04/01 08:00:19;;;;;;;4.40;4.00;;;8.30;99.90;;;;;;4991995;28;20516;-52
2023/04/01 08:02:59;;;;;;;5.73;5.23;;;8.30;99.90;;;;;;4991205;28;20494;-51
2023/04/01 08:05:28;;;;;;;4.87;4.50;;;8.20;99.90;;;;;;4991662;28;20505;-50
2023/04/01 08:08:06;;;;;;;5.10;4.70;;;8.30;99.90;;;;;;4992494;28;20565;-50
2023/04/01 08:10:40;;;;;;;5.60;4.53;;;8.40;99.90;;;;;;4985021;28;20481;-51
2023/04/01 08:13:17;;;;;;;19.83;4.30;;;8.40;99.90;;;;;;4991706;28;20893;-50
2023/04/01 08:15:53;;;;;;;5.73;5.23;;;8.40;99.90;;;;;;4986677;28;20537;-52
2023/04/01 08:18:30;;;;;;;4.90;4.50;;;8.30;99.90;;;;;;4990118;28;20810;-52
2023/04/01 08:21:00;;;;;;;4.90;4.50;;;8.30;99.90;;;;;;4993665;28;20467;-58
2023/04/01 08:23:29;;;;;;;6.33;5.77;;;8.30;99.90;;;;;;4989392;28;20470;-58
2023/04/01 08:26:05;;;;;;;5.00;4.60;;;8.30;99.90;;;;;;4993283;28;20479;-59
2023/04/01 08:28:40;;;;;;;5.90;5.10;;;8.20;99.90;;;;;;4991782;28;20513;-51
2023/04/01 08:31:11;;;;;;;5.70;5.20;;;8.30;99.90;;;;;;4993138;28;20523;-51
2023/04/01 08:33:40;;;;;;;5.17;4.77;;;8.30;99.90;;;;;;4993408;28;20901;-51
2023/04/01 08:36:11;;;;;;;9.30;4.57;;;8.30;99.90;;;;;;4997751;28;20494;-51
2023/04/01 08:38:43;;;;;;;6.40;5.80;;;8.40;99.90;;;;;;4998012;28;20485;-50
2023/04/01 08:41:55;;;;;;;5.77;5.27;;;8.40;99.90;;;;;;4983517;28;20983;-51
2023/04/01 08:44:48;;;;;;;4.77;4.47;;;8.40;99.90;;;;;;4918840;28;20547;-50
2023/04/01 08:47:37;;;;;;;4.87;4.57;;;8.40;99.90;;;;;;4951951;28;20548;-52
2023/04/01 08:50:47;;;;;;;5.27;4.77;;;8.40;99.90;;;;;;4994374;28;20568;-51
2023/04/01 08:53:22;;;;;;;4.60;4.30;;;8.40;99.90;;;;;;4989728;28;20530;-51
2023/04/01 08:56:06;;;;;;;4.40;4.10;;;8.40;99.90;;;;;;4985289;28;20548;-50
2023/04/01 08:59:00;;;;;;;5.30;4.90;;;8.40;99.90;;;;;;4988582;28;20490;-51
2023/04/01 09:01:52;;;;;;;4.93;4.53;;;8.50;99.90;;;;;;4990435;28;20843;-51
2023/04/01 09:04:33;;;;;;;5.00;4.70;;;8.50;99.90;;;;;;4985514;28;20539;-51
2023/04/01 09:07:13;;;;;;;4.70;4.40;;;8.40;99.90;;;;;;4986857;28;21217;-50
2023/04/01 09:10:13;;;;;;;4.33;4.13;;;8.30;99.90;;;;;;4991464;28;20504;-52
2023/04/01 09:13:03;;;;;;;4.70;4.40;;;8.40;99.90;;;;;;4989872;28;20517;-51
2023/04/01 09:16:05;;;;;;;3.90;3.70;;;8.50;99.90;;;;;;4989452;28;20972;-51
2023/04/01 09:19:00;;;;;;;4.80;4.50;;;8.40;99.90;;;;;;4989488;28;20560;-51
2023/04/01 09:22:08;;;;;;;4.80;4.50;;;8.60;99.90;;;;;;4993697;28;20490;-51
2023/04/01 09:25:02;;;;;;;4.90;4.57;;;8.60;99.90;;;;;;4993453;28;20504;-51
2023/04/01 09:27:33;;;;;;;4.60;4.30;;;8.70;99.90;;;;;;4986403;28;20470;-51
2023/04/01 09:30:32;;;;;;;4.40;4.10;;;8.50;99.90;;;;;;4991414;28;20576;-58
2023/04/01 09:33:27;;;;;;;4.03;3.80;;;8.50;99.90;;;;;;4990035;28;20470;-57
2023/04/01 09:36:04;;;;;;;4.60;4.30;;;8.50;99.90;;;;;;4992486;28;20498;-51
2023/04/01 09:38:40;;;;;;;4.33;4.03;;;8.50;99.90;;;;;;4991397;28;20485;-52
2023/04/01 09:41:18;;;;;;;4.93;4.60;;;8.50;99.90;;;;;;4990807;28;20461;-51
2023/04/01 09:44:01;;;;;;;4.80;4.50;;;8.60;99.90;;;;;;4994465;28;20525;-57
2023/04/01 09:46:38;;;;;;;4.47;4.23;;;8.60;99.90;;;;;;4998222;28;20526;-54
2023/04/01 09:49:22;;;;;;;4.13;3.93;;;8.60;99.90;;;;;;4990878;28;20501;-51
2023/04/01 09:52:02;;;;;;;4.00;3.80;;;8.50;99.90;;;;;;4991496;28;20913;-51
2023/04/01 09:54:55;;;;;;;4.10;3.90;;;8.60;99.90;;;;;;4989829;28;20512;-51
2023/04/01 09:57:50;;;;;;;3.77;3.57;;;8.60;99.90;;;;;;4988774;28;20498;-51
2023/04/01 10:01:02;;;;;;;3.67;3.50;;;8.50;99.90;;;;;;4990834;28;21046;-58
2023/04/01 10:04:14;;;;;;;4.43;3.93;;;8.60;99.90;;;;;;4953312;28;20529;-60
2023/04/01 10:07:14;;;;;;;75.23;51.73;;;8.60;99.90;;;;;;4991497;28;20473;-58
2023/04/01 10:10:10;;;;;;;7.30;6.70;;;8.60;99.90;;;;;;4969543;28;20520;-54
2023/04/01 10:12:53;;;;;;;3.30;3.10;;;8.60;99.90;;;;;;4993636;28;20540;-54
2023/04/01 10:15:51;;;;;;;3.70;3.50;;;8.50;99.90;;;;;;4981861;28;20464;-53
2023/04/01 10:18:55;;;;;;;3.43;3.33;;;8.50;99.90;;;;;;4985299;28;20637;-54
2023/04/01 10:21:49;;;;;;;3.10;2.90;;;8.50;99.90;;;;;;4992494;28;20519;-54
2023/04/01 10:24:49;;;;;;;3.17;2.97;;;8.50;99.90;;;;;;4997393;28;20955;-54
2023/04/01 10:27:43;;;;;;;3.23;3.03;;;8.40;99.90;;;;;;4967100;28;20507;-54
2023/04/01 10:30:43;;;;;;;4.93;2.83;;;8.20;99.90;;;;;;4994368;28;20906;-54
2023/04/01 10:33:49;;;;;;;2.47;2.37;;;8.30;99.90;;;;;;4990493;28;20547;-52
2023/04/01 10:36:47;;;;;;;2.70;2.60;;;8.30;99.90;;;;;;4993065;28;20493;-52
2023/04/01 10:39:54;;;;;;;3.67;3.33;;;8.30;99.90;;;;;;4994048;28;20540;-51
2023/04/01 10:42:57;;;;;;;2.00;1.90;;;8.20;99.90;;;;;;4991821;28;20896;-51
2023/04/01 10:46:00;;;;;;;3.00;2.80;;;8.20;99.90;;;;;;4992522;28;20540;-51
2023/04/01 10:49:12;;;;;;;2.43;2.33;;;8.40;99.90;;;;;;4991156;28;20585;-51
2023/04/01 10:52:17;;;;;;;2.30;2.20;;;8.40;99.90;;;;;;4959496;28;20489;-52
2023/04/01 10:54:49;;;;;;;2.60;2.50;;;8.50;99.90;;;;;;4917065;29;20564;-52
2023/04/01 10:57:41;;;;;;;4.07;3.70;;;8.60;99.90;;;;;;4987277;28;20489;-51
2023/04/01 11:00:39;;;;;;;7.47;4.30;;;8.60;99.90;;;;;;4997961;28;20512;-53
2023/04/01 11:03:57;;;;;;;6.40;5.80;;;8.50;99.90;;;;;;4989668;28;20594;-53
2023/04/01 11:06:58;;;;;;;2.70;2.60;;;8.50;99.90;;;;;;4966055;28;20918;-51
2023/04/01 11:10:03;;;;;;;2.53;2.33;;;8.40;99.90;;;;;;4969254;28;20584;-51
2023/04/01 11:13:05;;;;;;;3.23;3.03;;;8.30;99.90;;;;;;4991369;28;20462;-51
2023/04/01 11:15:57;;;;;;;2.77;2.57;;;8.30;99.90;;;;;;4995596;28;20552;-52
2023/04/01 11:19:06;;;;;;;3.73;2.50;;;8.40;99.90;;;;;;4992706;28;20575;-51
2023/04/01 11:22:05;;;;;;;2.40;2.30;;;8.30;99.90;;;;;;4982876;28;20469;-51
2023/04/01 11:25:06;;;;;;;2.20;2.10;;;8.20;99.90;;;;;;4979680;28;20561;-52
2023/04/01 11:27:51;;;;;;;2.30;2.10;;;8.20;99.90;;;;;;4997727;28;20541;-53
2023/04/01 11:30:29;;;;;;;2.50;2.40;;;8.30;99.90;;;;;;4991758;28;20565;-53
2023/04/01 11:33:01;;;;;;;2.23;2.13;;;8.30;99.90;;;;;;4992236;28;20493;-52
2023/04/01 11:35:56;;;;;;;2.43;2.27;;;8.30;99.90;;;;;;4991777;28;20496;-52
2023/04/01 11:38:54;;;;;;;4.33;2.60;;;8.20;99.90;;;;;;4992913;28;20566;-54
2023/04/01 11:41:32;;;;;;;2.37;2.27;;;8.20;99.90;;;;;;4989508;28;20967;-52
2023/04/01 11:44:15;;;;;;;5.83;2.47;;;8.20;99.90;;;;;;4988013;28;20481;-52
2023/04/01 11:47:06;;;;;;;2.53;2.43;;;8.10;99.90;;;;;;4994444;28;20582;-51
2023/04/01 11:49:47;;;;;;;3.17;2.97;;;8.10;99.90;;;;;;4982469;28;20572;-52
2023/04/01 11:52:27;;;;;;;3.20;3.00;;;8.10;99.90;;;;;;4990567;28;20545;-52
2023/04/01 11:55:11;;;;;;;3.37;3.17;;;8.20;99.90;;;;;;4989931;28;20504;-52
2023/04/01 11:57:51;;;;;;;3.10;2.90;;;8.20;99.90;;;;;;4990927;28;20531;-53
2023/04/01 12:00:42;;;;;;;3.07;2.97;;;8.40;99.90;;;;;;4992999;28;20572;-52
2023/04/01 12:03:31;;;;;;;2.30;2.13;;;8.40;99.90;;;;;;4993591;28;20567;-52
2023/04/01 12:06:05;;;;;;;2.90;2.80;;;8.40;99.90;;;;;;4996551;28;20525;-52
2023/04/01 12:08:44;;;;;;;3.03;2.93;;;8.30;79.70;;;;;;4991407;28;20517;-52
2023/04/01 12:11:22;;;;;;;2.80;2.70;;;8.40;99.90;;;;;;4995500;28;20521;-51
2023/04/01 12:13:55;;;;;;;3.60;3.30;;;8.40;99.90;;;;;;5002196;28;20978;-52
2023/04/01 12:16:40;;;;;;;7.80;3.47;;;8.40;99.90;;;;;;4999766;28;20501;-53
2023/04/01 12:19:16;;;;;;;2.43;2.27;;;8.40;99.90;;;;;;5001023;28;20518;-52
2023/04/01 12:21:52;;;;;;;2.57;2.43;;;8.30;99.90;;;;;;4999997;28;20474;-54
2023/04/01 12:24:49;;;;;;;2.10;1.80;;;8.30;99.90;;;;;;4992652;28;21080;-52
2023/04/01 12:27:40;;;;;;;2.47;2.27;;;8.30;99.90;;;;;;5002834;28;20553;-52
2023/04/01 12:30:25;;;;;;;2.20;2.10;;;8.30;99.90;;;;;;4997051;28;20990;-53
2023/04/01 12:33:04;;;;;;;3.40;2.10;;;8.10;99.90;;;;;;4992341;28;21041;-51
2023/04/01 12:35:37;;;;;;;3.00;2.10;;;8.10;99.90;;;;;;4991310;28;20462;-51
2023/04/01 12:38:15;;;;;;;3.00;2.80;;;8.00;99.90;;;;;;4992439;28;20544;-52
2023/04/01 12:41:01;;;;;;;2.10;1.97;;;8.00;99.90;;;;;;4984087;28;20883;-50
2023/04/01 12:43:54;;;;;;;2.30;2.10;;;7.90;99.90;;;;;;4996371;28;21006;-51
2023/04/01 12:46:32;;;;;;;3.40;2.90;;;7.90;99.90;;;;;;4991874;28;20992;-51
2023/04/01 12:49:34;;;;;;;3.43;2.60;;;7.80;78.60;;;;;;4990619;28;20487;-56
2023/04/01 12:52:06;;;;;;;2.53;2.30;;;7.80;99.90;;;;;;4992236;28;20459;-51
2023/04/01 12:54:57;;;;;;;2.53;2.33;;;7.80;99.90;;;;;;5000783;28;20461;-52
2023/04/01 12:57:46;;;;;;;3.40;2.63;;;7.90;99.90;;;;;;5001476;28;20470;-51
2023/04/01 13:00:28;;;;;;;2.37;2.27;;;7.90;99.90;;;;;;4999075;28;20573;-52
2023/04/01 13:03:15;;;;;;;2.77;2.30;;;7.80;99.90;;;;;;4992763;28;20581;-51
2023/04/01 13:06:10;;;;;;;2.50;1.90;;;7.80;99.90;;;;;;4993825;28;20531;-52
2023/04/01 13:08:43;;;;;;;2.00;1.90;;;7.70;99.90;;;;;;4989487;28;20574;-52
2023/04/01 13:11:17;;;;;;;2.77;2.57;;;7.80;99.90;;;;;;5014149;22;20604;-50
2023/04/01 13:14:10;;;;;;;2.10;2.00;;;7.60;99.90;;;;;;5011409;28;20493;-50
2023/04/01 13:16:41;;;;;;;3.30;2.90;;;7.60;99.90;;;;;;5000116;28;20470;-51
2023/04/01 13:19:13;;;;;;;2.90;2.70;;;7.50;99.90;;;;;;5007579;28;20485;-51
2023/04/01 13:21:52;;;;;;;2.80;2.60;;;7.60;99.90;;;;;;5007400;28;20574;-51
2023/04/01 13:24:31;;;;;;;2.50;2.40;;;7.40;92.80;;;;;;5006626;28;20530;-51
2023/04/01 13:27:03;;;;;;;2.50;2.30;;;7.60;99.90;;;;;;5006862;28;20894;-51
2023/04/01 13:29:35;;;;;;;2.80;2.60;;;7.60;99.90;;;;;;5009488;28;20515;-52
2023/04/01 13:32:18;;;;;;;2.40;2.30;;;7.60;99.90;;;;;;5007522;28;20496;-51
2023/04/01 13:35:04;;;;;;;2.20;2.10;;;7.60;81.90;;;;;;5002895;28;20557;-51
2023/04/01 13:37:47;;;;;;;2.20;2.10;;;7.40;25.30;;;;;;5008463;28;20540;-51
2023/04/01 13:40:40;;;;;;;3.17;2.87;;;7.40;20.90;;;;;;5007295;28;20494;-51
2023/04/01 13:43:15;;;;;;;2.73;2.63;;;7.50;99.90;;;;;;5005277;28;20600;-52
2023/04/01 13:46:04;;;;;;;2.73;2.53;;;7.40;99.90;;;;;;5009169;28;20551;-51